Terminal Aerodrome Forecast
Issued by NWS Austin/San Antonio, TX

Current Version | Previous Version | Text Only | Print | Product List | Glossary On
Versions: 1 2 3 4 5 6 7 8 9 10 11 12 13 14 15 16 17 18
000
FTUS44 KEWX 221100
TAFAUS
TAF
KAUS 221138Z 2212/2318 20010KT P6SM SCT007 OVC015
      TEMPO 2212/2215 5SM -DZ BR OVC007
     FM221800 25012KT P6SM BKN250
     FM230000 36005KT P6SM SCT250
     FM231600 36015KT P6SM SCT250=

USA.gov is the U.S. government's official web portal to all federal, state and local government web resources and services.